sensor_id;sensor_type;location;lat;lon;timestamp;P1;durP1;ratioP1;P2;durP2;ratioP2
33993;SDS011;20673;48.980;8.138;2024-01-30T00:00:15;19.63;;;13.37;;
33993;SDS011;20673;48.980;8.138;2024-01-30T00:02:42;20.63;;;14.40;;
33993;SDS011;20673;48.980;8.138;2024-01-30T00:05:08;19.97;;;13.53;;
33993;SDS011;20673;48.980;8.138;2024-01-30T00:07:34;21.97;;;14.10;;
33993;SDS011;20673;48.980;8.138;2024-01-30T00:10:00;21.37;;;13.30;;
33993;SDS011;20673;48.980;8.138;2024-01-30T00:12:26;20.83;;;13.53;;
33993;SDS011;20673;48.980;8.138;2024-01-30T00:14:52;21.03;;;13.30;;
33993;SDS011;20673;48.980;8.138;2024-01-30T00:17:19;23.20;;;15.60;;
33993;SDS011;20673;48.980;8.138;2024-01-30T00:19:46;27.10;;;16.23;;
33993;SDS011;20673;48.980;8.138;2024-01-30T00:22:12;23.60;;;14.97;;
33993;SDS011;20673;48.980;8.138;2024-01-30T00:24:38;23.53;;;14.57;;
33993;SDS011;20673;48.980;8.138;2024-01-30T00:27:04;20.67;;;13.67;;
33993;SDS011;20673;48.980;8.138;2024-01-30T00:29:30;21.73;;;13.90;;
33993;SDS011;20673;48.980;8.138;2024-01-30T00:31:58;26.53;;;16.30;;
33993;SDS011;20673;48.980;8.138;2024-01-30T00:34:24;26.70;;;16.20;;
33993;SDS011;20673;48.980;8.138;2024-01-30T00:36:50;23.77;;;15.33;;
33993;SDS011;20673;48.980;8.138;2024-01-30T00:39:16;26.50;;;16.80;;
33993;SDS011;20673;48.980;8.138;2024-01-30T00:41:45;21.33;;;14.53;;
33993;SDS011;20673;48.980;8.138;2024-01-30T00:44:11;25.93;;;15.33;;
33993;SDS011;20673;48.980;8.138;2024-01-30T00:46:37;20.87;;;13.83;;
33993;SDS011;20673;48.980;8.138;2024-01-30T00:49:03;24.33;;;15.80;;
33993;SDS011;20673;48.980;8.138;2024-01-30T00:51:29;22.77;;;15.77;;
33993;SDS011;20673;48.980;8.138;2024-01-30T00:53:55;20.10;;;13.33;;
33993;SDS011;20673;48.980;8.138;2024-01-30T00:56:21;26.37;;;16.40;;
33993;SDS011;20673;48.980;8.138;2024-01-30T00:58:47;26.77;;;16.50;;
33993;SDS011;20673;48.980;8.138;2024-01-30T01:01:13;21.43;;;14.97;;
33993;SDS011;20673;48.980;8.138;2024-01-30T01:03:40;23.03;;;14.83;;
33993;SDS011;20673;48.980;8.138;2024-01-30T01:06:08;21.70;;;14.97;;
33993;SDS011;20673;48.980;8.138;2024-01-30T01:08:34;24.57;;;16.53;;
33993;SDS011;20673;48.980;8.138;2024-01-30T01:11:00;25.23;;;16.50;;
33993;SDS011;20673;48.980;8.138;2024-01-30T01:13:26;23.50;;;16.33;;
33993;SDS011;20673;48.980;8.138;2024-01-30T01:15:52;26.73;;;16.53;;
33993;SDS011;20673;48.980;8.138;2024-01-30T01:18:18;24.90;;;16.77;;
33993;SDS011;20673;48.980;8.138;2024-01-30T01:20:44;23.13;;;14.90;;
33993;SDS011;20673;48.980;8.138;2024-01-30T01:23:10;24.23;;;15.27;;
33993;SDS011;20673;48.980;8.138;2024-01-30T01:25:36;25.73;;;16.57;;
33993;SDS011;20673;48.980;8.138;2024-01-30T01:28:02;20.93;;;14.43;;
33993;SDS011;20673;48.980;8.138;2024-01-30T01:30:29;21.43;;;13.83;;
33993;SDS011;20673;48.980;8.138;2024-01-30T01:32:55;22.97;;;15.67;;
33993;SDS011;20673;48.980;8.138;2024-01-30T01:35:23;22.17;;;14.30;;
33993;SDS011;20673;48.980;8.138;2024-01-30T01:37:50;23.43;;;15.13;;
33993;SDS011;20673;48.980;8.138;2024-01-30T01:40:19;22.47;;;15.20;;
33993;SDS011;20673;48.980;8.138;2024-01-30T01:42:45;25.00;;;15.30;;
33993;SDS011;20673;48.980;8.138;2024-01-30T01:45:11;22.87;;;14.73;;
33993;SDS011;20673;48.980;8.138;2024-01-30T01:47:37;22.37;;;15.30;;
33993;SDS011;20673;48.980;8.138;2024-01-30T01:50:04;24.30;;;15.97;;
33993;SDS011;20673;48.980;8.138;2024-01-30T01:52:30;22.00;;;14.47;;
33993;SDS011;20673;48.980;8.138;2024-01-30T01:54:57;23.73;;;16.17;;
33993;SDS011;20673;48.980;8.138;2024-01-30T01:57:24;27.33;;;16.77;;
33993;SDS011;20673;48.980;8.138;2024-01-30T01:59:50;27.97;;;17.43;;
33993;SDS011;20673;48.980;8.138;2024-01-30T02:02:17;25.63;;;16.20;;
33993;SDS011;20673;48.980;8.138;2024-01-30T02:04:45;24.80;;;15.27;;
33993;SDS011;20673;48.980;8.138;2024-01-30T02:07:11;23.30;;;14.93;;
33993;SDS011;20673;48.980;8.138;2024-01-30T02:09:37;24.50;;;16.30;;
33993;SDS011;20673;48.980;8.138;2024-01-30T02:12:04;22.90;;;14.93;;
33993;SDS011;20673;48.980;8.138;2024-01-30T02:14:30;20.80;;;15.30;;
33993;SDS011;20673;48.980;8.138;2024-01-30T02:16:56;24.17;;;14.43;;
33993;SDS011;20673;48.980;8.138;2024-01-30T02:19:22;24.87;;;15.47;;
33993;SDS011;20673;48.980;8.138;2024-01-30T02:21:48;24.50;;;14.57;;
33993;SDS011;20673;48.980;8.138;2024-01-30T02:24:15;23.70;;;14.80;;
33993;SDS011;20673;48.980;8.138;2024-01-30T02:26:41;26.77;;;16.63;;
33993;SDS011;20673;48.980;8.138;2024-01-30T02:29:07;25.37;;;15.07;;
33993;SDS011;20673;48.980;8.138;2024-01-30T02:31:34;23.50;;;16.27;;
33993;SDS011;20673;48.980;8.138;2024-01-30T02:34:00;24.50;;;15.57;;
33993;SDS011;20673;48.980;8.138;2024-01-30T02:36:26;23.50;;;15.50;;
33993;SDS011;20673;48.980;8.138;2024-01-30T02:38:52;26.30;;;16.27;;
33993;SDS011;20673;48.980;8.138;2024-01-30T02:41:18;22.43;;;14.77;;
33993;SDS011;20673;48.980;8.138;2024-01-30T02:43:44;26.47;;;17.90;;
33993;SDS011;20673;48.980;8.138;2024-01-30T02:46:10;26.90;;;17.77;;
33993;SDS011;20673;48.980;8.138;2024-01-30T02:48:36;27.00;;;16.57;;
33993;SDS011;20673;48.980;8.138;2024-01-30T02:51:04;25.27;;;15.70;;
33993;SDS011;20673;48.980;8.138;2024-01-30T02:53:31;25.30;;;16.20;;
33993;SDS011;20673;48.980;8.138;2024-01-30T02:55:57;23.97;;;15.63;;
33993;SDS011;20673;48.980;8.138;2024-01-30T02:58:23;24.07;;;15.93;;
33993;SDS011;20673;48.980;8.138;2024-01-30T03:00:49;26.30;;;15.90;;
33993;SDS011;20673;48.980;8.138;2024-01-30T03:03:15;23.33;;;15.93;;
33993;SDS011;20673;48.980;8.138;2024-01-30T03:05:41;26.53;;;16.90;;
33993;SDS011;20673;48.980;8.138;2024-01-30T03:08:07;27.17;;;16.97;;
33993;SDS011;20673;48.980;8.138;2024-01-30T03:10:33;29.07;;;18.20;;
33993;SDS011;20673;48.980;8.138;2024-01-30T03:12:59;26.90;;;17.73;;
33993;SDS011;20673;48.980;8.138;2024-01-30T03:15:25;31.63;;;18.43;;
33993;SDS011;20673;48.980;8.138;2024-01-30T03:17:53;27.33;;;17.90;;
33993;SDS011;20673;48.980;8.138;2024-01-30T03:20:19;29.23;;;18.20;;
33993;SDS011;20673;48.980;8.138;2024-01-30T03:22:45;29.17;;;18.33;;
33993;SDS011;20673;48.980;8.138;2024-01-30T03:25:11;25.23;;;17.47;;
33993;SDS011;20673;48.980;8.138;2024-01-30T03:27:37;27.87;;;19.57;;
33993;SDS011;20673;48.980;8.138;2024-01-30T03:30:04;28.90;;;18.77;;
33993;SDS011;20673;48.980;8.138;2024-01-30T03:32:31;30.23;;;19.33;;
33993;SDS011;20673;48.980;8.138;2024-01-30T03:34:57;37.53;;;24.50;;
33993;SDS011;20673;48.980;8.138;2024-01-30T03:37:24;30.37;;;20.77;;
33993;SDS011;20673;48.980;8.138;2024-01-30T03:39:50;30.90;;;20.70;;
33993;SDS011;20673;48.980;8.138;2024-01-30T03:42:16;31.33;;;21.30;;
33993;SDS011;20673;48.980;8.138;2024-01-30T03:44:42;33.10;;;20.77;;
33993;SDS011;20673;48.980;8.138;2024-01-30T03:47:08;30.73;;;19.37;;
33993;SDS011;20673;48.980;8.138;2024-01-30T03:49:34;32.87;;;20.10;;
33993;SDS011;20673;48.980;8.138;2024-01-30T03:52:00;31.03;;;19.83;;
33993;SDS011;20673;48.980;8.138;2024-01-30T03:54:26;29.83;;;19.37;;
33993;SDS011;20673;48.980;8.138;2024-01-30T03:56:52;26.87;;;18.43;;
33993;SDS011;20673;48.980;8.138;2024-01-30T03:59:19;34.27;;;20.27;;
33993;SDS011;20673;48.980;8.138;2024-01-30T04:01:47;28.67;;;19.13;;
33993;SDS011;20673;48.980;8.138;2024-01-30T04:04:13;33.77;;;20.03;;
33993;SDS011;20673;48.980;8.138;2024-01-30T04:06:39;49.43;;;29.73;;
33993;SDS011;20673;48.980;8.138;2024-01-30T04:09:05;32.27;;;20.40;;
33993;SDS011;20673;48.980;8.138;2024-01-30T04:11:31;33.27;;;19.17;;
33993;SDS011;20673;48.980;8.138;2024-01-30T04:13:57;30.83;;;20.70;;
33993;SDS011;20673;48.980;8.138;2024-01-30T04:16:23;29.73;;;20.27;;
33993;SDS011;20673;48.980;8.138;2024-01-30T04:18:50;32.03;;;21.03;;
33993;SDS011;20673;48.980;8.138;2024-01-30T04:21:17;40.30;;;24.87;;
33993;SDS011;20673;48.980;8.138;2024-01-30T04:23:47;31.67;;;20.20;;
33993;SDS011;20673;48.980;8.138;2024-01-30T04:26:16;32.73;;;21.13;;
33993;SDS011;20673;48.980;8.138;2024-01-30T04:28:43;31.50;;;19.47;;
33993;SDS011;20673;48.980;8.138;2024-01-30T04:31:10;32.03;;;18.93;;
33993;SDS011;20673;48.980;8.138;2024-01-30T04:33:37;29.77;;;20.20;;
33993;SDS011;20673;48.980;8.138;2024-01-30T04:36:04;37.13;;;21.83;;
33993;SDS011;20673;48.980;8.138;2024-01-30T04:38:34;33.43;;;19.30;;
33993;SDS011;20673;48.980;8.138;2024-01-30T04:41:00;31.27;;;19.60;;
33993;SDS011;20673;48.980;8.138;2024-01-30T04:43:27;29.47;;;19.63;;
33993;SDS011;20673;48.980;8.138;2024-01-30T04:45:53;30.43;;;19.83;;
33993;SDS011;20673;48.980;8.138;2024-01-30T04:48:19;32.07;;;20.20;;
33993;SDS011;20673;48.980;8.138;2024-01-30T04:50:45;33.77;;;21.10;;
33993;SDS011;20673;48.980;8.138;2024-01-30T04:53:11;32.77;;;20.27;;
33993;SDS011;20673;48.980;8.138;2024-01-30T04:55:37;33.67;;;20.53;;
33993;SDS011;20673;48.980;8.138;2024-01-30T04:58:03;33.33;;;21.17;;
33993;SDS011;20673;48.980;8.138;2024-01-30T05:00:29;35.20;;;22.77;;
33993;SDS011;20673;48.980;8.138;2024-01-30T05:02:55;39.50;;;21.87;;
33993;SDS011;20673;48.980;8.138;2024-01-30T05:05:22;32.80;;;20.50;;
33993;SDS011;20673;48.980;8.138;2024-01-30T05:07:48;37.60;;;25.90;;
33993;SDS011;20673;48.980;8.138;2024-01-30T05:10:14;40.90;;;27.90;;
33993;SDS011;20673;48.980;8.138;2024-01-30T05:12:40;37.23;;;24.63;;
33993;SDS011;20673;48.980;8.138;2024-01-30T05:15:06;33.57;;;21.20;;
33993;SDS011;20673;48.980;8.138;2024-01-30T05:17:33;35.03;;;22.97;;
33993;SDS011;20673;48.980;8.138;2024-01-30T05:19:59;38.27;;;22.90;;
33993;SDS011;20673;48.980;8.138;2024-01-30T05:22:26;33.73;;;21.97;;
33993;SDS011;20673;48.980;8.138;2024-01-30T05:24:52;36.43;;;23.33;;
33993;SDS011;20673;48.980;8.138;2024-01-30T05:27:18;33.43;;;21.00;;
33993;SDS011;20673;48.980;8.138;2024-01-30T05:29:44;32.80;;;21.23;;
33993;SDS011;20673;48.980;8.138;2024-01-30T05:32:11;35.83;;;20.37;;
33993;SDS011;20673;48.980;8.138;2024-01-30T05:34:37;29.53;;;18.50;;
33993;SDS011;20673;48.980;8.138;2024-01-30T05:37:03;31.47;;;20.53;;
33993;SDS011;20673;48.980;8.138;2024-01-30T05:39:29;33.20;;;20.93;;
33993;SDS011;20673;48.980;8.138;2024-01-30T05:41:57;32.30;;;19.33;;
33993;SDS011;20673;48.980;8.138;2024-01-30T05:44:24;32.43;;;20.43;;
33993;SDS011;20673;48.980;8.138;2024-01-30T05:46:50;32.20;;;20.87;;
33993;SDS011;20673;48.980;8.138;2024-01-30T05:49:16;32.10;;;19.80;;
33993;SDS011;20673;48.980;8.138;2024-01-30T05:51:42;31.30;;;20.67;;
33993;SDS011;20673;48.980;8.138;2024-01-30T05:54:08;31.77;;;18.87;;
33993;SDS011;20673;48.980;8.138;2024-01-30T05:56:34;30.37;;;19.63;;
33993;SDS011;20673;48.980;8.138;2024-01-30T05:59:00;29.83;;;19.17;;
33993;SDS011;20673;48.980;8.138;2024-01-30T06:01:26;25.87;;;18.03;;
33993;SDS011;20673;48.980;8.138;2024-01-30T06:03:52;32.93;;;19.20;;
33993;SDS011;20673;48.980;8.138;2024-01-30T06:06:18;30.13;;;19.37;;
33993;SDS011;20673;48.980;8.138;2024-01-30T06:08:44;36.73;;;24.07;;
33993;SDS011;20673;48.980;8.138;2024-01-30T06:11:10;31.80;;;20.73;;
33993;SDS011;20673;48.980;8.138;2024-01-30T06:13:37;29.87;;;20.63;;
33993;SDS011;20673;48.980;8.138;2024-01-30T06:16:03;31.73;;;21.13;;
33993;SDS011;20673;48.980;8.138;2024-01-30T06:18:31;32.93;;;20.03;;
33993;SDS011;20673;48.980;8.138;2024-01-30T06:20:57;36.03;;;22.70;;
33993;SDS011;20673;48.980;8.138;2024-01-30T06:23:23;36.27;;;23.20;;
33993;SDS011;20673;48.980;8.138;2024-01-30T06:25:49;33.90;;;22.60;;
33993;SDS011;20673;48.980;8.138;2024-01-30T06:28:15;33.53;;;20.93;;
33993;SDS011;20673;48.980;8.138;2024-01-30T06:30:41;28.47;;;18.23;;
33993;SDS011;20673;48.980;8.138;2024-01-30T06:33:08;30.57;;;19.53;;
33993;SDS011;20673;48.980;8.138;2024-01-30T06:35:34;28.17;;;17.90;;
33993;SDS011;20673;48.980;8.138;2024-01-30T06:38:01;31.07;;;19.93;;
33993;SDS011;20673;48.980;8.138;2024-01-30T06:40:27;30.83;;;19.70;;
33993;SDS011;20673;48.980;8.138;2024-01-30T06:42:53;29.90;;;18.93;;
33993;SDS011;20673;48.980;8.138;2024-01-30T06:45:19;34.23;;;21.37;;
33993;SDS011;20673;48.980;8.138;2024-01-30T06:47:45;32.40;;;20.03;;
33993;SDS011;20673;48.980;8.138;2024-01-30T06:50:11;36.33;;;20.47;;
33993;SDS011;20673;48.980;8.138;2024-01-30T06:52:38;32.33;;;19.07;;
33993;SDS011;20673;48.980;8.138;2024-01-30T06:55:04;27.73;;;19.43;;
33993;SDS011;20673;48.980;8.138;2024-01-30T06:57:31;30.73;;;18.87;;
33993;SDS011;20673;48.980;8.138;2024-01-30T06:59:57;29.80;;;18.67;;
33993;SDS011;20673;48.980;8.138;2024-01-30T07:02:23;29.03;;;17.73;;
33993;SDS011;20673;48.980;8.138;2024-01-30T07:04:49;28.73;;;18.67;;
33993;SDS011;20673;48.980;8.138;2024-01-30T07:07:15;29.43;;;18.87;;
33993;SDS011;20673;48.980;8.138;2024-01-30T07:09:42;34.80;;;20.73;;
33993;SDS011;20673;48.980;8.138;2024-01-30T07:12:08;27.50;;;17.73;;
33993;SDS011;20673;48.980;8.138;2024-01-30T07:14:34;31.20;;;18.87;;
33993;SDS011;20673;48.980;8.138;2024-01-30T07:17:02;32.57;;;19.03;;
33993;SDS011;20673;48.980;8.138;2024-01-30T07:19:28;27.40;;;18.47;;
33993;SDS011;20673;48.980;8.138;2024-01-30T07:21:54;30.23;;;19.17;;
33993;SDS011;20673;48.980;8.138;2024-01-30T07:24:20;31.53;;;20.03;;
33993;SDS011;20673;48.980;8.138;2024-01-30T07:26:46;31.20;;;20.93;;
33993;SDS011;20673;48.980;8.138;2024-01-30T07:29:12;35.37;;;19.43;;
33993;SDS011;20673;48.980;8.138;2024-01-30T07:31:38;30.13;;;19.97;;
33993;SDS011;20673;48.980;8.138;2024-01-30T07:34:05;30.23;;;20.43;;
33993;SDS011;20673;48.980;8.138;2024-01-30T07:36:31;31.33;;;18.67;;
33993;SDS011;20673;48.980;8.138;2024-01-30T07:38:57;31.13;;;19.80;;
33993;SDS011;20673;48.980;8.138;2024-01-30T07:41:23;27.33;;;18.33;;
33993;SDS011;20673;48.980;8.138;2024-01-30T07:43:50;31.80;;;18.90;;
33993;SDS011;20673;48.980;8.138;2024-01-30T07:46:17;31.13;;;19.57;;
33993;SDS011;20673;48.980;8.138;2024-01-30T07:48:43;30.53;;;19.97;;
33993;SDS011;20673;48.980;8.138;2024-01-30T07:51:09;29.13;;;19.20;;
33993;SDS011;20673;48.980;8.138;2024-01-30T07:53:35;33.93;;;20.63;;
33993;SDS011;20673;48.980;8.138;2024-01-30T07:56:01;26.90;;;18.97;;
33993;SDS011;20673;48.980;8.138;2024-01-30T07:58:28;30.33;;;19.37;;
33993;SDS011;20673;48.980;8.138;2024-01-30T08:00:54;30.50;;;20.23;;
33993;SDS011;20673;48.980;8.138;2024-01-30T08:03:22;31.03;;;20.00;;
33993;SDS011;20673;48.980;8.138;2024-01-30T08:05:48;31.23;;;19.77;;
33993;SDS011;20673;48.980;8.138;2024-01-30T08:08:14;31.23;;;20.53;;
33993;SDS011;20673;48.980;8.138;2024-01-30T08:10:40;32.73;;;20.20;;
33993;SDS011;20673;48.980;8.138;2024-01-30T08:13:06;31.47;;;21.27;;
33993;SDS011;20673;48.980;8.138;2024-01-30T08:15:34;36.10;;;20.53;;
33993;SDS011;20673;48.980;8.138;2024-01-30T08:18:00;36.03;;;22.67;;
33993;SDS011;20673;48.980;8.138;2024-01-30T08:20:26;32.03;;;22.57;;
33993;SDS011;20673;48.980;8.138;2024-01-30T08:22:52;32.73;;;20.80;;
33993;SDS011;20673;48.980;8.138;2024-01-30T08:25:18;32.50;;;20.10;;
33993;SDS011;20673;48.980;8.138;2024-01-30T08:27:44;28.97;;;20.60;;
33993;SDS011;20673;48.980;8.138;2024-01-30T08:30:11;35.90;;;21.77;;
33993;SDS011;20673;48.980;8.138;2024-01-30T08:32:40;32.77;;;21.17;;
33993;SDS011;20673;48.980;8.138;2024-01-30T08:35:08;30.50;;;20.30;;
33993;SDS011;20673;48.980;8.138;2024-01-30T08:37:34;33.17;;;21.40;;
33993;SDS011;20673;48.980;8.138;2024-01-30T08:40:00;35.60;;;23.07;;
33993;SDS011;20673;48.980;8.138;2024-01-30T08:42:27;34.80;;;22.13;;
33993;SDS011;20673;48.980;8.138;2024-01-30T08:44:53;32.17;;;22.37;;
33993;SDS011;20673;48.980;8.138;2024-01-30T08:47:21;32.20;;;22.00;;
33993;SDS011;20673;48.980;8.138;2024-01-30T08:49:47;29.60;;;20.63;;
33993;SDS011;20673;48.980;8.138;2024-01-30T08:52:13;29.40;;;20.50;;
33993;SDS011;20673;48.980;8.138;2024-01-30T08:54:39;32.07;;;20.97;;
33993;SDS011;20673;48.980;8.138;2024-01-30T08:57:05;25.97;;;19.37;;
33993;SDS011;20673;48.980;8.138;2024-01-30T08:59:31;31.00;;;20.10;;
33993;SDS011;20673;48.980;8.138;2024-01-30T09:01:57;30.63;;;20.87;;
33993;SDS011;20673;48.980;8.138;2024-01-30T09:04:24;31.43;;;21.47;;
33993;SDS011;20673;48.980;8.138;2024-01-30T09:06:51;31.30;;;20.80;;
33993;SDS011;20673;48.980;8.138;2024-01-30T09:09:17;32.83;;;21.63;;
33993;SDS011;20673;48.980;8.138;2024-01-30T09:11:43;31.17;;;22.03;;
33993;SDS011;20673;48.980;8.138;2024-01-30T09:14:09;31.50;;;21.07;;
33993;SDS011;20673;48.980;8.138;2024-01-30T09:16:35;32.50;;;22.40;;
33993;SDS011;20673;48.980;8.138;2024-01-30T09:19:01;30.13;;;21.90;;
33993;SDS011;20673;48.980;8.138;2024-01-30T09:21:27;28.63;;;21.33;;
33993;SDS011;20673;48.980;8.138;2024-01-30T09:23:54;34.57;;;23.13;;
33993;SDS011;20673;48.980;8.138;2024-01-30T09:26:20;38.50;;;23.97;;
33993;SDS011;20673;48.980;8.138;2024-01-30T09:28:46;32.33;;;23.03;;
33993;SDS011;20673;48.980;8.138;2024-01-30T09:31:12;37.10;;;24.60;;
33993;SDS011;20673;48.980;8.138;2024-01-30T09:33:38;32.83;;;23.63;;
33993;SDS011;20673;48.980;8.138;2024-01-30T09:36:05;33.13;;;23.20;;
33993;SDS011;20673;48.980;8.138;2024-01-30T09:38:32;30.83;;;23.00;;
33993;SDS011;20673;48.980;8.138;2024-01-30T09:40:58;40.13;;;26.47;;
33993;SDS011;20673;48.980;8.138;2024-01-30T09:43:31;39.38;;;25.23;;
33993;SDS011;20673;48.980;8.138;2024-01-30T09:46:01;33.42;;;24.15;;
33993;SDS011;20673;48.980;8.138;2024-01-30T09:48:30;32.80;;;22.97;;
33993;SDS011;20673;48.980;8.138;2024-01-30T09:50:59;35.53;;;25.60;;
33993;SDS011;20673;48.980;8.138;2024-01-30T09:53:26;37.77;;;26.87;;
33993;SDS011;20673;48.980;8.138;2024-01-30T09:55:52;32.40;;;25.23;;
33993;SDS011;20673;48.980;8.138;2024-01-30T09:58:18;46.70;;;30.90;;
33993;SDS011;20673;48.980;8.138;2024-01-30T10:00:45;47.47;;;29.60;;
33993;SDS011;20673;48.980;8.138;2024-01-30T10:03:11;48.27;;;31.27;;
33993;SDS011;20673;48.980;8.138;2024-01-30T10:05:39;39.70;;;26.83;;
33993;SDS011;20673;48.980;8.138;2024-01-30T10:08:06;31.97;;;23.83;;
33993;SDS011;20673;48.980;8.138;2024-01-30T10:10:33;31.90;;;23.17;;
33993;SDS011;20673;48.980;8.138;2024-01-30T10:13:01;31.97;;;22.30;;
33993;SDS011;20673;48.980;8.138;2024-01-30T10:15:28;34.67;;;22.70;;
33993;SDS011;20673;48.980;8.138;2024-01-30T10:17:54;29.53;;;20.90;;
33993;SDS011;20673;48.980;8.138;2024-01-30T10:20:20;27.97;;;20.50;;
33993;SDS011;20673;48.980;8.138;2024-01-30T10:22:48;29.13;;;21.73;;
33993;SDS011;20673;48.980;8.138;2024-01-30T10:25:15;31.20;;;22.30;;
33993;SDS011;20673;48.980;8.138;2024-01-30T10:27:42;31.83;;;22.17;;
33993;SDS011;20673;48.980;8.138;2024-01-30T10:30:08;29.77;;;20.87;;
33993;SDS011;20673;48.980;8.138;2024-01-30T10:32:34;26.93;;;19.47;;
33993;SDS011;20673;48.980;8.138;2024-01-30T10:35:01;31.03;;;21.70;;
33993;SDS011;20673;48.980;8.138;2024-01-30T10:37:27;30.00;;;22.33;;
33993;SDS011;20673;48.980;8.138;2024-01-30T10:43:09;33.97;;;23.63;;
33993;SDS011;20673;48.980;8.138;2024-01-30T10:45:40;29.27;;;19.27;;
33993;SDS011;20673;48.980;8.138;2024-01-30T10:48:12;28.52;;;21.23;;
33993;SDS011;20673;48.980;8.138;2024-01-30T10:51:02;24.33;;;19.33;;
33993;SDS011;20673;48.980;8.138;2024-01-30T10:53:30;25.73;;;18.23;;
33993;SDS011;20673;48.980;8.138;2024-01-30T10:59:44;22.13;;;16.23;;
33993;SDS011;20673;48.980;8.138;2024-01-30T11:02:32;20.17;;;15.68;;
33993;SDS011;20673;48.980;8.138;2024-01-30T11:04:59;18.95;;;14.93;;
33993;SDS011;20673;48.980;8.138;2024-01-30T11:07:26;15.30;;;12.25;;
33993;SDS011;20673;48.980;8.138;2024-01-30T11:12:29;15.48;;;11.57;;
33993;SDS011;20673;48.980;8.138;2024-01-30T11:15:02;12.88;;;9.93;;
33993;SDS011;20673;48.980;8.138;2024-01-30T11:20:30;14.28;;;10.63;;
33993;SDS011;20673;48.980;8.138;2024-01-30T11:22:57;14.47;;;9.75;;
33993;SDS011;20673;48.980;8.138;2024-01-30T11:25:25;13.93;;;9.50;;
33993;SDS011;20673;48.980;8.138;2024-01-30T11:27:55;13.80;;;9.45;;
33993;SDS011;20673;48.980;8.138;2024-01-30T11:33:01;16.23;;;9.65;;
33993;SDS011;20673;48.980;8.138;2024-01-30T11:35:39;15.88;;;9.03;;
33993;SDS011;20673;48.980;8.138;2024-01-30T11:38:09;12.53;;;9.43;;
33993;SDS011;20673;48.980;8.138;2024-01-30T11:40:38;15.80;;;9.38;;
33993;SDS011;20673;48.980;8.138;2024-01-30T11:43:06;10.93;;;9.17;;
33993;SDS011;20673;48.980;8.138;2024-01-30T11:45:34;12.37;;;9.40;;
33993;SDS011;20673;48.980;8.138;2024-01-30T11:48:01;14.07;;;9.27;;
33993;SDS011;20673;48.980;8.138;2024-01-30T11:50:29;12.80;;;8.93;;
33993;SDS011;20673;48.980;8.138;2024-01-30T11:52:56;11.27;;;8.77;;
33993;SDS011;20673;48.980;8.138;2024-01-30T11:55:24;11.07;;;8.73;;
33993;SDS011;20673;48.980;8.138;2024-01-30T11:57:50;12.67;;;8.73;;
33993;SDS011;20673;48.980;8.138;2024-01-30T12:00:19;11.73;;;8.30;;
33993;SDS011;20673;48.980;8.138;2024-01-30T12:02:49;12.13;;;9.00;;
33993;SDS011;20673;48.980;8.138;2024-01-30T12:05:19;11.20;;;9.13;;
33993;SDS011;20673;48.980;8.138;2024-01-30T12:07:45;12.68;;;8.33;;
33993;SDS011;20673;48.980;8.138;2024-01-30T12:10:15;12.50;;;8.40;;
33993;SDS011;20673;48.980;8.138;2024-01-30T12:12:42;10.70;;;8.40;;
33993;SDS011;20673;48.980;8.138;2024-01-30T12:15:13;10.60;;;8.25;;
33993;SDS011;20673;48.980;8.138;2024-01-30T12:17:40;12.53;;;9.43;;
33993;SDS011;20673;48.980;8.138;2024-01-30T12:22:44;14.07;;;8.83;;
33993;SDS011;20673;48.980;8.138;2024-01-30T12:25:14;11.12;;;8.63;;
33993;SDS011;20673;48.980;8.138;2024-01-30T12:27:46;13.43;;;9.63;;
33993;SDS011;20673;48.980;8.138;2024-01-30T12:30:18;12.63;;;8.88;;
33993;SDS011;20673;48.980;8.138;2024-01-30T12:32:46;13.13;;;10.15;;
33993;SDS011;20673;48.980;8.138;2024-01-30T12:35:16;13.60;;;8.70;;
33993;SDS011;20673;48.980;8.138;2024-01-30T12:37:44;13.50;;;9.25;;
33993;SDS011;20673;48.980;8.138;2024-01-30T12:40:12;12.07;;;9.23;;
33993;SDS011;20673;48.980;8.138;2024-01-30T12:42:40;11.48;;;8.98;;
33993;SDS011;20673;48.980;8.138;2024-01-30T12:45:08;12.70;;;8.98;;
33993;SDS011;20673;48.980;8.138;2024-01-30T12:47:35;12.82;;;8.90;;
33993;SDS011;20673;48.980;8.138;2024-01-30T12:50:01;13.17;;;9.40;;
33993;SDS011;20673;48.980;8.138;2024-01-30T12:52:28;13.55;;;9.85;;
33993;SDS011;20673;48.980;8.138;2024-01-30T12:54:55;13.28;;;8.73;;
33993;SDS011;20673;48.980;8.138;2024-01-30T12:57:21;9.70;;;8.48;;
33993;SDS011;20673;48.980;8.138;2024-01-30T12:59:47;14.53;;;9.08;;
33993;SDS011;20673;48.980;8.138;2024-01-30T13:02:13;13.00;;;8.18;;
33993;SDS011;20673;48.980;8.138;2024-01-30T13:04:40;15.95;;;9.08;;
33993;SDS011;20673;48.980;8.138;2024-01-30T13:07:07;12.05;;;8.98;;
33993;SDS011;20673;48.980;8.138;2024-01-30T13:09:34;13.07;;;8.53;;
33993;SDS011;20673;48.980;8.138;2024-01-30T13:12:00;10.17;;;8.10;;
33993;SDS011;20673;48.980;8.138;2024-01-30T13:14:26;11.43;;;8.33;;
33993;SDS011;20673;48.980;8.138;2024-01-30T13:16:52;11.03;;;7.33;;
33993;SDS011;20673;48.980;8.138;2024-01-30T13:19:18;11.50;;;8.10;;
33993;SDS011;20673;48.980;8.138;2024-01-30T13:21:44;10.50;;;8.08;;
33993;SDS011;20673;48.980;8.138;2024-01-30T13:24:10;9.75;;;7.65;;
33993;SDS011;20673;48.980;8.138;2024-01-30T13:26:37;13.28;;;8.70;;
33993;SDS011;20673;48.980;8.138;2024-01-30T13:29:03;13.38;;;9.33;;
33993;SDS011;20673;48.980;8.138;2024-01-30T13:31:29;11.97;;;8.28;;
33993;SDS011;20673;48.980;8.138;2024-01-30T13:33:55;13.43;;;8.83;;
33993;SDS011;20673;48.980;8.138;2024-01-30T13:36:21;11.03;;;8.60;;
33993;SDS011;20673;48.980;8.138;2024-01-30T13:38:48;12.60;;;8.65;;
33993;SDS011;20673;48.980;8.138;2024-01-30T13:41:14;15.75;;;10.40;;
33993;SDS011;20673;48.980;8.138;2024-01-30T13:43:42;12.25;;;8.50;;
33993;SDS011;20673;48.980;8.138;2024-01-30T13:46:10;16.40;;;9.03;;
33993;SDS011;20673;48.980;8.138;2024-01-30T13:48:36;13.25;;;9.73;;
33993;SDS011;20673;48.980;8.138;2024-01-30T13:51:03;11.40;;;8.85;;
33993;SDS011;20673;48.980;8.138;2024-01-30T13:53:29;14.00;;;9.20;;
33993;SDS011;20673;48.980;8.138;2024-01-30T13:55:55;14.35;;;9.08;;
33993;SDS011;20673;48.980;8.138;2024-01-30T13:58:22;18.60;;;11.95;;
33993;SDS011;20673;48.980;8.138;2024-01-30T14:00:48;15.18;;;9.80;;
33993;SDS011;20673;48.980;8.138;2024-01-30T14:03:14;15.35;;;9.83;;
33993;SDS011;20673;48.980;8.138;2024-01-30T14:05:40;14.20;;;9.70;;
33993;SDS011;20673;48.980;8.138;2024-01-30T14:08:06;12.73;;;10.07;;
33993;SDS011;20673;48.980;8.138;2024-01-30T14:10:34;15.30;;;9.50;;
33993;SDS011;20673;48.980;8.138;2024-01-30T14:13:00;14.73;;;9.10;;
33993;SDS011;20673;48.980;8.138;2024-01-30T14:15:26;12.35;;;9.05;;
33993;SDS011;20673;48.980;8.138;2024-01-30T14:17:52;13.05;;;9.60;;
33993;SDS011;20673;48.980;8.138;2024-01-30T14:20:18;12.55;;;9.63;;
33993;SDS011;20673;48.980;8.138;2024-01-30T14:22:45;14.25;;;9.60;;
33993;SDS011;20673;48.980;8.138;2024-01-30T14:25:11;15.80;;;10.60;;
33993;SDS011;20673;48.980;8.138;2024-01-30T14:27:37;16.87;;;10.50;;
33993;SDS011;20673;48.980;8.138;2024-01-30T14:30:04;13.10;;;9.60;;
33993;SDS011;20673;48.980;8.138;2024-01-30T14:32:31;11.55;;;8.90;;
33993;SDS011;20673;48.980;8.138;2024-01-30T14:34:57;14.90;;;10.40;;
33993;SDS011;20673;48.980;8.138;2024-01-30T14:37:23;15.88;;;9.78;;